AEE282 LGAV-LGKR
Flight info
| Callsign | AEE282 |
|---|---|
| Flight time | 0h 44m |
| Altitude | 32000 |
| Route | KOR UL53 PARNA |
| Aircraft | A320/M-SDE3FGHIRWY/LB1 |
Departure
| Time | 2026-05-06 08:55 |
|---|---|
| Airport | Athens Eleftherios Venizelos International Airport (LGAV) |
Arrival
| Time | 2026-05-06 09:39 |
|---|---|
| Airport | Corfu Ioannis Kapodistrias International Airport (LGKR) |
| Time | Latitude | Longitude | Altitude | Speed | Heading |
|---|---|---|---|---|---|
| 2026-05-06 08:32 | 37.93049 | 23.94280 | 303 ft | 0 kts | 37° |
| 2026-05-06 08:47 | 37.93048 | 23.94280 | 301 ft | 1 kts | 37° |
| 2026-05-06 08:47 | 37.93029 | 23.94261 | 302 ft | 4 kts | 39° |
| 2026-05-06 08:47 | 37.93009 | 23.94239 | 301 ft | 4 kts | 43° |
| 2026-05-06 08:47 | 37.92990 | 23.94215 | 302 ft | 4 kts | 59° |
| 2026-05-06 08:48 | 37.92984 | 23.94188 | 301 ft | 3 kts | 118° |
| 2026-05-06 08:48 | 37.92986 | 23.94183 | 301 ft | 0 kts | 127° |
| 2026-05-06 08:51 | 37.92982 | 23.94189 | 301 ft | 2 kts | 127° |
| 2026-05-06 08:51 | 37.92968 | 23.94212 | 301 ft | 4 kts | 127° |
| 2026-05-06 08:51 | 37.92945 | 23.94251 | 301 ft | 7 kts | 127° |
| 2026-05-06 08:52 | 37.92909 | 23.94311 | 302 ft | 11 kts | 127° |
| 2026-05-06 08:52 | 37.92858 | 23.94396 | 303 ft | 13 kts | 127° |
| 2026-05-06 08:52 | 37.92791 | 23.94456 | 302 ft | 12 kts | 185° |
| 2026-05-06 08:52 | 37.92717 | 23.94396 | 302 ft | 14 kts | 217° |
| 2026-05-06 08:53 | 37.92625 | 23.94309 | 304 ft | 18 kts | 217° |
| 2026-05-06 08:53 | 37.92520 | 23.94209 | 303 ft | 20 kts | 217° |
| 2026-05-06 08:53 | 37.92434 | 23.94169 | 303 ft | 12 kts | 162° |
| 2026-05-06 08:53 | 37.92410 | 23.94262 | 306 ft | 11 kts | 89° |
| 2026-05-06 08:54 | 37.92416 | 23.94363 | 309 ft | 14 kts | 78° |
| 2026-05-06 08:54 | 37.92506 | 23.94471 | 309 ft | 23 kts | 37° |
| 2026-05-06 08:54 | 37.92791 | 23.94741 | 300 ft | 87 kts | 37° |
| 2026-05-06 08:54 | 37.93437 | 23.95356 | 287 ft | 143 kts | 37° |
| 2026-05-06 08:55 | 37.94332 | 23.96214 | 487 ft | 172 kts | 37° |
| 2026-05-06 08:55 | 37.95324 | 23.97160 | 1049 ft | 184 kts | 38° |
| 2026-05-06 08:55 | 37.96400 | 23.98193 | 1436 ft | 205 kts | 38° |
| 2026-05-06 08:55 | 37.97612 | 23.99356 | 1788 ft | 231 kts | 37° |
| 2026-05-06 08:56 | 37.98945 | 24.00635 | 2489 ft | 246 kts | 36° |
| 2026-05-06 08:56 | 38.00326 | 24.01958 | 3472 ft | 251 kts | 36° |
| 2026-05-06 08:56 | 38.01727 | 24.03299 | 4399 ft | 254 kts | 35° |
| 2026-05-06 08:56 | 38.03199 | 24.04598 | 5159 ft | 265 kts | 25° |
| 2026-05-06 08:57 | 38.05001 | 24.05131 | 5947 ft | 271 kts | 357° |
| 2026-05-06 08:57 | 38.06820 | 24.04542 | 6828 ft | 274 kts | 330° |
| 2026-05-06 08:57 | 38.08224 | 24.02936 | 7729 ft | 275 kts | 303° |
| 2026-05-06 08:57 | 38.08937 | 24.00684 | 8629 ft | 278 kts | 285° |
| 2026-05-06 08:58 | 38.09438 | 23.98298 | 9533 ft | 281 kts | 285° |
| 2026-05-06 08:58 | 38.09940 | 23.95875 | 10251 ft | 291 kts | 285° |
| 2026-05-06 08:58 | 38.10476 | 23.93293 | 10508 ft | 315 kts | 285° |
| 2026-05-06 08:58 | 38.11051 | 23.90540 | 11004 ft | 327 kts | 285° |
| 2026-05-06 08:59 | 38.11642 | 23.87727 | 11710 ft | 332 kts | 286° |
| 2026-05-06 08:59 | 38.12241 | 23.84874 | 12479 ft | 336 kts | 286° |
| 2026-05-06 08:59 | 38.12848 | 23.81991 | 13234 ft | 339 kts | 286° |
| 2026-05-06 08:59 | 38.13460 | 23.79079 | 13959 ft | 343 kts | 286° |
| 2026-05-06 09:00 | 38.14076 | 23.76139 | 14612 ft | 346 kts | 287° |
| 2026-05-06 09:00 | 38.14694 | 23.73180 | 15287 ft | 347 kts | 287° |
| 2026-05-06 09:00 | 38.15304 | 23.70256 | 15995 ft | 348 kts | 287° |
| 2026-05-06 09:00 | 38.15931 | 23.67240 | 16680 ft | 349 kts | 287° |
| 2026-05-06 09:01 | 38.16544 | 23.64294 | 17364 ft | 351 kts | 287° |
| 2026-05-06 09:01 | 38.17168 | 23.61291 | 18049 ft | 352 kts | 287° |
| 2026-05-06 09:01 | 38.17797 | 23.58278 | 18710 ft | 354 kts | 287° |
| 2026-05-06 09:01 | 38.18429 | 23.55245 | 19306 ft | 356 kts | 287° |
| 2026-05-06 09:02 | 38.19071 | 23.52150 | 19886 ft | 359 kts | 287° |
| 2026-05-06 09:02 | 38.19701 | 23.49108 | 20443 ft | 362 kts | 287° |
| 2026-05-06 09:02 | 38.20350 | 23.45960 | 20986 ft | 365 kts | 287° |
| 2026-05-06 09:02 | 38.20986 | 23.42874 | 21506 ft | 367 kts | 287° |
| 2026-05-06 09:03 | 38.21634 | 23.39714 | 22002 ft | 371 kts | 287° |
| 2026-05-06 09:03 | 38.22288 | 23.36526 | 22520 ft | 374 kts | 287° |
| 2026-05-06 09:03 | 38.22949 | 23.33312 | 23038 ft | 377 kts | 287° |
| 2026-05-06 09:03 | 38.23617 | 23.30067 | 23536 ft | 381 kts | 287° |
| 2026-05-06 09:04 | 38.24286 | 23.26798 | 23975 ft | 383 kts | 287° |
| 2026-05-06 09:04 | 38.24960 | 23.23505 | 24399 ft | 386 kts | 287° |
| 2026-05-06 09:04 | 38.25635 | 23.20192 | 24820 ft | 388 kts | 287° |
| 2026-05-06 09:04 | 38.26313 | 23.16854 | 25243 ft | 391 kts | 287° |
| 2026-05-06 09:05 | 38.26996 | 23.13495 | 25653 ft | 393 kts | 287° |
| 2026-05-06 09:05 | 38.27684 | 23.10117 | 26071 ft | 396 kts | 287° |
| 2026-05-06 09:05 | 38.28375 | 23.06721 | 26490 ft | 397 kts | 287° |
| 2026-05-06 09:05 | 38.29068 | 23.03308 | 26916 ft | 399 kts | 287° |
| 2026-05-06 09:06 | 38.29764 | 22.99875 | 27305 ft | 402 kts | 287° |
| 2026-05-06 09:06 | 38.30462 | 22.96414 | 27676 ft | 405 kts | 287° |
| 2026-05-06 09:06 | 38.31161 | 22.92929 | 28106 ft | 407 kts | 287° |
| 2026-05-06 09:06 | 38.31862 | 22.89426 | 28520 ft | 409 kts | 287° |
| 2026-05-06 09:07 | 38.32567 | 22.85910 | 28938 ft | 411 kts | 287° |
| 2026-05-06 09:07 | 38.33279 | 22.82370 | 29347 ft | 414 kts | 287° |
| 2026-05-06 09:07 | 38.33995 | 22.78812 | 29738 ft | 416 kts | 287° |
| 2026-05-06 09:07 | 38.34714 | 22.75228 | 30114 ft | 419 kts | 287° |
| 2026-05-06 09:08 | 38.35431 | 22.71622 | 30445 ft | 421 kts | 286° |
| 2026-05-06 09:08 | 38.36147 | 22.67991 | 30782 ft | 423 kts | 286° |
| 2026-05-06 09:08 | 38.36867 | 22.64349 | 31104 ft | 425 kts | 286° |
| 2026-05-06 09:08 | 38.37591 | 22.60696 | 31495 ft | 425 kts | 286° |
| 2026-05-06 09:09 | 38.38316 | 22.57038 | 31933 ft | 425 kts | 286° |
| 2026-05-06 09:09 | 38.39043 | 22.53390 | 32068 ft | 423 kts | 286° |
| 2026-05-06 09:09 | 38.39753 | 22.49810 | 32088 ft | 412 kts | 286° |
| 2026-05-06 09:10 | 38.41133 | 22.42785 | 32092 ft | 407 kts | 285° |
| 2026-05-06 09:10 | 38.42502 | 22.35787 | 32097 ft | 406 kts | 286° |
| 2026-05-06 09:11 | 38.43866 | 22.28795 | 32102 ft | 406 kts | 285° |
| 2026-05-06 09:11 | 38.45229 | 22.21794 | 32103 ft | 406 kts | 285° |
| 2026-05-06 09:12 | 38.46592 | 22.14799 | 32098 ft | 406 kts | 285° |
| 2026-05-06 09:12 | 38.48284 | 22.07961 | 32104 ft | 404 kts | 298° |
| 2026-05-06 09:13 | 38.50979 | 22.01701 | 32107 ft | 405 kts | 299° |
| 2026-05-06 09:13 | 38.53726 | 21.95371 | 32106 ft | 405 kts | 299° |
| 2026-05-06 09:14 | 38.56447 | 21.89072 | 32111 ft | 405 kts | 299° |
| 2026-05-06 09:14 | 38.59154 | 21.82761 | 31935 ft | 403 kts | 299° |
| 2026-05-06 09:14 | 38.60496 | 21.79629 | 31416 ft | 400 kts | 299° |
| 2026-05-06 09:15 | 38.61830 | 21.76516 | 30886 ft | 399 kts | 299° |
| 2026-05-06 09:15 | 38.63164 | 21.73408 | 30376 ft | 397 kts | 299° |
| 2026-05-06 09:15 | 38.64489 | 21.70322 | 29815 ft | 394 kts | 300° |
| 2026-05-06 09:15 | 38.65804 | 21.67257 | 29243 ft | 392 kts | 300° |
| 2026-05-06 09:16 | 38.67108 | 21.64209 | 28656 ft | 389 kts | 300° |
| 2026-05-06 09:16 | 38.68396 | 21.61191 | 28107 ft | 386 kts | 300° |
| 2026-05-06 09:16 | 38.69677 | 21.58182 | 27550 ft | 383 kts | 300° |
| 2026-05-06 09:16 | 38.70948 | 21.55193 | 27015 ft | 381 kts | 300° |
| 2026-05-06 09:17 | 38.72210 | 21.52226 | 26493 ft | 379 kts | 300° |
| 2026-05-06 09:17 | 38.73468 | 21.49274 | 25981 ft | 376 kts | 300° |
| 2026-05-06 09:17 | 38.74702 | 21.46378 | 25475 ft | 374 kts | 300° |
| 2026-05-06 09:17 | 38.75960 | 21.43419 | 24965 ft | 372 kts | 300° |
| 2026-05-06 09:18 | 38.77191 | 21.40517 | 24494 ft | 370 kts | 300° |
| 2026-05-06 09:18 | 38.78396 | 21.37674 | 24062 ft | 367 kts | 300° |
| 2026-05-06 09:18 | 38.79613 | 21.34793 | 23616 ft | 365 kts | 300° |
| 2026-05-06 09:18 | 38.80818 | 21.31941 | 23103 ft | 362 kts | 300° |
| 2026-05-06 09:19 | 38.82013 | 21.29114 | 22596 ft | 359 kts | 300° |
| 2026-05-06 09:19 | 38.83199 | 21.26304 | 22082 ft | 357 kts | 300° |
| 2026-05-06 09:19 | 38.84375 | 21.23521 | 21612 ft | 354 kts | 300° |
| 2026-05-06 09:19 | 38.85546 | 21.20748 | 21136 ft | 352 kts | 300° |
| 2026-05-06 09:20 | 38.86705 | 21.17998 | 20658 ft | 349 kts | 299° |
| 2026-05-06 09:20 | 38.87852 | 21.15271 | 20197 ft | 346 kts | 299° |
| 2026-05-06 09:20 | 38.88988 | 21.12568 | 19742 ft | 343 kts | 299° |
| 2026-05-06 09:20 | 38.90114 | 21.09885 | 19290 ft | 340 kts | 298° |
| 2026-05-06 09:21 | 38.91232 | 21.07220 | 18848 ft | 338 kts | 298° |
| 2026-05-06 09:21 | 38.92342 | 21.04575 | 18419 ft | 335 kts | 298° |
| 2026-05-06 09:21 | 38.93442 | 21.01951 | 17962 ft | 332 kts | 298° |
| 2026-05-06 09:21 | 38.94532 | 20.99349 | 17523 ft | 330 kts | 298° |
| 2026-05-06 09:22 | 38.95616 | 20.96760 | 17086 ft | 328 kts | 298° |
| 2026-05-06 09:22 | 38.96691 | 20.94188 | 16655 ft | 326 kts | 298° |
| 2026-05-06 09:22 | 38.97760 | 20.91631 | 16223 ft | 324 kts | 298° |
| 2026-05-06 09:22 | 38.98826 | 20.89080 | 15800 ft | 323 kts | 298° |
| 2026-05-06 09:23 | 38.99885 | 20.86542 | 15388 ft | 322 kts | 298° |
| 2026-05-06 09:23 | 39.00943 | 20.84007 | 14980 ft | 322 kts | 298° |
| 2026-05-06 09:23 | 39.02001 | 20.81468 | 14574 ft | 322 kts | 298° |
| 2026-05-06 09:23 | 39.03057 | 20.78927 | 14171 ft | 322 kts | 298° |
| 2026-05-06 09:24 | 39.04105 | 20.76400 | 13757 ft | 320 kts | 298° |
| 2026-05-06 09:24 | 39.05153 | 20.73874 | 13305 ft | 319 kts | 298° |
| 2026-05-06 09:24 | 39.06196 | 20.71369 | 12883 ft | 316 kts | 298° |
| 2026-05-06 09:24 | 39.07217 | 20.68920 | 12525 ft | 313 kts | 298° |
| 2026-05-06 09:25 | 39.08242 | 20.66454 | 12169 ft | 311 kts | 298° |
| 2026-05-06 09:25 | 39.09255 | 20.63999 | 11822 ft | 310 kts | 298° |
| 2026-05-06 09:25 | 39.10265 | 20.61550 | 11477 ft | 309 kts | 298° |
| 2026-05-06 09:25 | 39.11268 | 20.59113 | 11135 ft | 307 kts | 297° |
| 2026-05-06 09:26 | 39.12270 | 20.56680 | 10800 ft | 307 kts | 298° |
| 2026-05-06 09:26 | 39.13269 | 20.54255 | 10462 ft | 306 kts | 298° |
| 2026-05-06 09:26 | 39.14263 | 20.51844 | 10128 ft | 303 kts | 298° |
| 2026-05-06 09:26 | 39.15247 | 20.49462 | 9834 ft | 298 kts | 298° |
| 2026-05-06 09:27 | 39.16209 | 20.47130 | 9561 ft | 292 kts | 298° |
| 2026-05-06 09:27 | 39.17137 | 20.44875 | 9298 ft | 277 kts | 297° |
| 2026-05-06 09:27 | 39.18030 | 20.42698 | 9043 ft | 272 kts | 297° |
| 2026-05-06 09:27 | 39.18910 | 20.40559 | 8786 ft | 268 kts | 297° |
| 2026-05-06 09:28 | 39.19778 | 20.38451 | 8534 ft | 264 kts | 297° |
| 2026-05-06 09:28 | 39.20636 | 20.36371 | 8281 ft | 262 kts | 297° |
| 2026-05-06 09:28 | 39.21487 | 20.34299 | 8026 ft | 261 kts | 297° |
| 2026-05-06 09:28 | 39.22331 | 20.32235 | 7786 ft | 260 kts | 297° |
| 2026-05-06 09:29 | 39.23174 | 20.30176 | 7536 ft | 259 kts | 297° |
| 2026-05-06 09:29 | 39.23728 | 20.28819 | 7373 ft | 257 kts | 297° |
| 2026-05-06 09:29 | 39.24555 | 20.26788 | 7165 ft | 253 kts | 297° |
| 2026-05-06 09:29 | 39.25364 | 20.24802 | 7014 ft | 246 kts | 297° |
| 2026-05-06 09:30 | 39.26139 | 20.22902 | 6825 ft | 235 kts | 297° |
| 2026-05-06 09:30 | 39.26896 | 20.21045 | 6585 ft | 233 kts | 297° |
| 2026-05-06 09:30 | 39.27645 | 20.19208 | 6335 ft | 230 kts | 296° |
| 2026-05-06 09:30 | 39.28387 | 20.17392 | 6079 ft | 227 kts | 296° |
| 2026-05-06 09:31 | 39.29117 | 20.15600 | 5828 ft | 225 kts | 296° |
| 2026-05-06 09:31 | 39.29840 | 20.13824 | 5574 ft | 222 kts | 296° |
| 2026-05-06 09:31 | 39.30555 | 20.12068 | 5326 ft | 219 kts | 296° |
| 2026-05-06 09:31 | 39.31259 | 20.10336 | 5071 ft | 217 kts | 295° |
| 2026-05-06 09:32 | 39.31955 | 20.08621 | 4840 ft | 214 kts | 295° |
| 2026-05-06 09:32 | 39.32643 | 20.06930 | 4603 ft | 211 kts | 295° |
| 2026-05-06 09:32 | 39.33320 | 20.05269 | 4364 ft | 207 kts | 295° |
| 2026-05-06 09:32 | 39.33986 | 20.03625 | 4118 ft | 205 kts | 295° |
| 2026-05-06 09:33 | 39.34639 | 20.02007 | 3911 ft | 200 kts | 295° |
| 2026-05-06 09:33 | 39.35297 | 20.00481 | 3692 ft | 191 kts | 302° |
| 2026-05-06 09:33 | 39.36196 | 19.99258 | 3464 ft | 186 kts | 319° |
| 2026-05-06 09:33 | 39.37305 | 19.98431 | 3236 ft | 183 kts | 335° |
| 2026-05-06 09:34 | 39.38530 | 19.98041 | 3001 ft | 181 kts | 353° |
| 2026-05-06 09:34 | 39.39776 | 19.97966 | 2773 ft | 177 kts | 356° |
| 2026-05-06 09:34 | 39.40996 | 19.97896 | 2544 ft | 173 kts | 356° |
| 2026-05-06 09:34 | 39.42146 | 19.97808 | 2339 ft | 163 kts | 351° |
| 2026-05-06 09:35 | 39.43220 | 19.97464 | 2134 ft | 157 kts | 342° |
| 2026-05-06 09:35 | 39.44247 | 19.97077 | 1986 ft | 148 kts | 343° |
| 2026-05-06 09:35 | 39.45239 | 19.96707 | 1856 ft | 148 kts | 345° |
| 2026-05-06 09:35 | 39.46217 | 19.96342 | 1778 ft | 147 kts | 343° |
| 2026-05-06 09:36 | 39.47197 | 19.95974 | 1718 ft | 146 kts | 342° |
| 2026-05-06 09:36 | 39.48180 | 19.95604 | 1721 ft | 147 kts | 343° |
| 2026-05-06 09:36 | 39.49157 | 19.95238 | 1717 ft | 146 kts | 343° |
| 2026-05-06 09:36 | 39.50136 | 19.94870 | 1711 ft | 146 kts | 342° |
| 2026-05-06 09:37 | 39.51115 | 19.94502 | 1642 ft | 148 kts | 342° |
| 2026-05-06 09:37 | 39.52094 | 19.94124 | 1415 ft | 146 kts | 339° |
| 2026-05-06 09:37 | 39.53020 | 19.93584 | 1189 ft | 144 kts | 329° |
| 2026-05-06 09:37 | 39.53896 | 19.92970 | 949 ft | 144 kts | 334° |
| 2026-05-06 09:38 | 39.54855 | 19.92542 | 812 ft | 146 kts | 348° |
| 2026-05-06 09:38 | 39.55852 | 19.92286 | 664 ft | 145 kts | 348° |
| 2026-05-06 09:38 | 39.56837 | 19.92023 | 476 ft | 144 kts | 349° |
| 2026-05-06 09:38 | 39.57818 | 19.91807 | 318 ft | 142 kts | 353° |
| 2026-05-06 09:39 | 39.58786 | 19.91572 | 123 ft | 142 kts | 351° |
| 2026-05-06 09:39 | 39.59741 | 19.91333 | 13 ft | 132 kts | 349° |
| 2026-05-06 09:39 | 39.60509 | 19.91131 | 9 ft | 91 kts | 348° |
| 2026-05-06 09:39 | 39.60927 | 19.91024 | 9 ft | 30 kts | 348° |
| 2026-05-06 09:40 | 39.61037 | 19.91045 | 9 ft | 8 kts | 46° |
| 2026-05-06 09:40 | 39.61043 | 19.91113 | 9 ft | 9 kts | 126° |
| 2026-05-06 09:40 | 39.60891 | 19.91165 | 9 ft | 15 kts | 168° |
| 2026-05-06 09:41 | 39.60816 | 19.91195 | 6 ft | 8 kts | 133° |
| 2026-05-06 09:41 | 39.60827 | 19.91260 | 7 ft | 8 kts | 73° |
| 2026-05-06 09:41 | 39.60836 | 19.91317 | 6 ft | 2 kts | 79° |
| 2026-05-06 09:41 | 39.60837 | 19.91320 | 6 ft | 0 kts | 79° |